createdAt,value
2023-03-26T00:01:15.306Z,9.30
2023-03-26T00:03:44.826Z,10.30
2023-03-26T00:06:14.649Z,9.30
2023-03-26T00:08:43.012Z,5.70
2023-03-26T00:11:11.705Z,9.40
2023-03-26T00:13:38.620Z,4.20
2023-03-26T00:16:05.642Z,9.67
2023-03-26T00:18:34.801Z,12.80
2023-03-26T00:21:04.110Z,11.40
2023-03-26T00:23:33.038Z,9.83
2023-03-26T00:26:00.735Z,16.93
2023-03-26T00:28:27.381Z,14.80
2023-03-26T00:30:59.592Z,10.90
2023-03-26T00:33:26.554Z,8.60
2023-03-26T00:35:55.485Z,12.23
2023-03-26T00:38:23.882Z,11.53
2023-03-26T00:40:51.891Z,15.17
2023-03-26T00:43:20.401Z,13.00
2023-03-26T00:45:54.892Z,11.80
2023-03-26T00:48:28.949Z,14.70
2023-03-26T00:51:06.304Z,12.40
2023-03-26T00:53:33.348Z,9.97
2023-03-26T00:56:00.443Z,14.10
2023-03-26T00:58:29.940Z,20.03
2023-03-26T01:00:58.799Z,9.73
2023-03-26T01:03:29.508Z,16.73
2023-03-26T01:06:08.028Z,16.67
2023-03-26T01:08:38.963Z,17.87
2023-03-26T01:11:19.453Z,17.13
2023-03-26T01:13:56.544Z,8.70
2023-03-26T01:16:28.672Z,21.07
2023-03-26T01:18:58.638Z,21.53
2023-03-26T01:21:30.136Z,12.50
2023-03-26T01:24:07.123Z,21.53
2023-03-26T01:26:53.999Z,13.60
2023-03-26T01:29:41.205Z,19.43
2023-03-26T01:32:37.560Z,22.00
2023-03-26T01:35:30.672Z,12.63
2023-03-26T01:38:18.167Z,19.97
2023-03-26T01:41:04.515Z,18.90
2023-03-26T01:44:00.490Z,23.43
2023-03-26T01:46:28.669Z,20.90
2023-03-26T01:48:55.824Z,17.33
2023-03-26T01:51:31.435Z,19.73
2023-03-26T01:53:59.252Z,16.00
2023-03-26T01:56:44.683Z,23.27
2023-03-26T01:59:35.955Z,22.03
2023-03-26T02:02:09.737Z,22.90
2023-03-26T02:04:55.532Z,16.30
2023-03-26T02:07:51.071Z,17.60
2023-03-26T02:10:27.298Z,22.33
2023-03-26T02:12:54.723Z,20.33
2023-03-26T02:15:21.919Z,15.67
2023-03-26T02:17:49.459Z,21.10
2023-03-26T02:20:18.698Z,17.53
2023-03-26T02:22:47.185Z,19.20
2023-03-26T02:25:19.929Z,14.07
2023-03-26T02:27:47.307Z,15.17
2023-03-26T02:30:17.826Z,16.07
2023-03-26T02:32:44.400Z,11.93
2023-03-26T02:35:12.184Z,19.23
2023-03-26T02:37:39.578Z,24.53
2023-03-26T02:40:11.134Z,15.23
2023-03-26T02:42:38.346Z,25.67
2023-03-26T02:45:06.669Z,19.33
2023-03-26T02:47:33.876Z,19.60
2023-03-26T02:50:01.401Z,19.20
2023-03-26T02:52:27.980Z,21.40
2023-03-26T02:54:54.625Z,19.17
2023-03-26T02:57:21.993Z,17.40
2023-03-26T02:59:50.222Z,16.63
2023-03-26T03:02:18.245Z,26.00
2023-03-26T03:04:45.141Z,21.40
2023-03-26T03:07:14.357Z,24.90
2023-03-26T03:09:41.475Z,21.77
2023-03-26T03:12:08.223Z,23.30
2023-03-26T03:14:34.947Z,25.40
2023-03-26T03:17:01.532Z,16.33
2023-03-26T03:19:28.140Z,13.00
2023-03-26T03:21:54.747Z,19.67
2023-03-26T03:24:21.283Z,17.70
2023-03-26T03:26:47.981Z,21.53
2023-03-26T03:29:14.614Z,20.80
2023-03-26T03:31:41.606Z,17.00
2023-03-26T03:34:08.148Z,15.87
2023-03-26T03:36:38.340Z,15.80
2023-03-26T03:39:05.071Z,23.77
2023-03-26T03:41:31.661Z,14.77
2023-03-26T03:43:59.676Z,12.70
2023-03-26T03:46:26.302Z,12.97
2023-03-26T03:48:52.935Z,24.37
2023-03-26T03:51:19.696Z,17.30
2023-03-26T03:53:47.337Z,27.80
2023-03-26T03:56:14.699Z,22.27
2023-03-26T03:58:42.140Z,21.23
2023-03-26T04:01:08.792Z,16.23
2023-03-26T04:03:38.848Z,19.43
2023-03-26T04:06:07.265Z,18.13
2023-03-26T04:08:34.669Z,21.40
2023-03-26T04:11:02.533Z,21.10
2023-03-26T04:13:29.456Z,20.63
2023-03-26T04:15:56.917Z,21.83
2023-03-26T04:18:23.873Z,13.70
2023-03-26T04:20:50.694Z,11.20
2023-03-26T04:23:18.354Z,12.27
2023-03-26T04:25:49.159Z,16.53
2023-03-26T04:28:42.337Z,21.27
2023-03-26T04:31:13.741Z,13.97
2023-03-26T04:33:40.436Z,14.57
2023-03-26T04:36:07.277Z,28.97
2023-03-26T04:38:42.365Z,18.97
2023-03-26T04:41:13.893Z,21.90
2023-03-26T04:43:42.245Z,23.43
2023-03-26T04:46:10.447Z,16.73
2023-03-26T04:48:38.655Z,16.10
2023-03-26T04:51:09.830Z,25.13
2023-03-26T04:53:36.760Z,12.90
2023-03-26T04:56:14.158Z,23.00
2023-03-26T04:58:41.087Z,12.97
2023-03-26T05:01:11.056Z,15.73
2023-03-26T05:03:40.597Z,16.77
2023-03-26T05:06:07.480Z,15.60
2023-03-26T05:08:34.040Z,13.03
2023-03-26T05:11:00.630Z,17.20
2023-03-26T05:13:27.235Z,25.10
2023-03-26T05:15:55.479Z,14.50
2023-03-26T05:18:22.054Z,11.07
2023-03-26T05:20:48.709Z,21.30
2023-03-26T05:23:15.438Z,16.30
2023-03-26T05:25:42.078Z,22.10
2023-03-26T05:28:10.545Z,11.07
2023-03-26T05:30:37.125Z,16.33
2023-03-26T05:33:04.167Z,12.47
2023-03-26T05:35:31.168Z,20.23
2023-03-26T05:37:57.884Z,14.70
2023-03-26T05:40:24.581Z,23.80
2023-03-26T05:42:51.294Z,11.70
2023-03-26T05:45:18.084Z,22.57
2023-03-26T05:47:44.688Z,20.40
2023-03-26T05:50:11.530Z,17.93
2023-03-26T05:52:38.288Z,24.10
2023-03-26T05:55:05.338Z,12.83
2023-03-26T05:57:32.362Z,10.40
2023-03-26T05:59:58.986Z,19.17
2023-03-26T06:02:25.584Z,15.00
2023-03-26T06:04:52.385Z,25.10
2023-03-26T06:07:19.637Z,17.93
2023-03-26T06:09:46.355Z,17.03
2023-03-26T06:12:15.539Z,13.83
2023-03-26T06:14:42.855Z,17.53
2023-03-26T06:17:10.175Z,14.30
2023-03-26T06:19:37.022Z,15.87
2023-03-26T06:22:04.637Z,16.53
2023-03-26T06:24:31.844Z,18.23
2023-03-26T06:26:58.389Z,15.43
2023-03-26T06:29:25.904Z,12.83
2023-03-26T06:31:52.583Z,17.47
2023-03-26T06:34:19.157Z,19.23
2023-03-26T06:36:45.840Z,13.73
2023-03-26T06:39:12.410Z,15.73
2023-03-26T06:41:38.996Z,11.63
2023-03-26T06:44:05.571Z,25.60
2023-03-26T06:46:32.295Z,12.67
2023-03-26T06:48:59.520Z,20.57
2023-03-26T06:51:26.159Z,14.67
2023-03-26T06:53:52.850Z,20.07
2023-03-26T06:56:19.423Z,19.77
2023-03-26T06:58:46.222Z,15.13
2023-03-26T07:01:12.888Z,17.23
2023-03-26T07:03:39.802Z,12.50
2023-03-26T07:06:06.767Z,14.50
2023-03-26T07:08:33.458Z,13.20
2023-03-26T07:11:00.075Z,17.73
2023-03-26T07:13:26.676Z,19.33
2023-03-26T07:15:53.234Z,10.67
2023-03-26T07:18:19.843Z,19.10
2023-03-26T07:20:46.727Z,13.50
2023-03-26T07:23:15.514Z,11.87
2023-03-26T07:25:44.261Z,16.60
2023-03-26T07:28:14.160Z,16.07
2023-03-26T07:31:04.831Z,10.93
2023-03-26T07:33:44.236Z,11.13
2023-03-26T07:36:43.438Z,11.03
2023-03-26T07:39:38.232Z,10.40
2023-03-26T07:42:28.894Z,8.80
2023-03-26T07:45:14.698Z,14.70
2023-03-26T07:47:44.860Z,12.17
2023-03-26T07:50:18.302Z,10.60
2023-03-26T07:52:45.918Z,17.93
2023-03-26T07:55:15.080Z,8.77
2023-03-26T07:57:50.557Z,18.27
2023-03-26T08:00:41.123Z,16.70
2023-03-26T08:03:35.741Z,15.13
2023-03-26T08:06:23.909Z,11.80
2023-03-26T08:09:02.722Z,12.23
2023-03-26T08:11:56.945Z,17.27
2023-03-26T08:14:33.590Z,15.97
2023-03-26T08:17:35.461Z,14.70
2023-03-26T08:20:07.405Z,15.70
2023-03-26T08:22:50.605Z,14.10
2023-03-26T08:25:20.283Z,12.33
2023-03-26T08:28:13.481Z,14.30
2023-03-26T08:30:40.305Z,14.40
2023-03-26T08:33:18.506Z,10.80
2023-03-26T08:35:46.665Z,17.87
2023-03-26T08:38:15.861Z,9.87
2023-03-26T08:41:00.531Z,15.70
2023-03-26T08:44:04.652Z,10.60
2023-03-26T08:47:05.475Z,14.33
2023-03-26T08:50:12.546Z,13.37
2023-03-26T08:53:08.456Z,8.20
2023-03-26T08:56:01.172Z,11.83
2023-03-26T08:58:58.575Z,13.60
2023-03-26T09:01:47.933Z,14.10
2023-03-26T09:04:23.133Z,13.07
2023-03-26T09:07:27.158Z,13.63
2023-03-26T09:10:18.422Z,11.53
2023-03-26T09:13:02.225Z,14.17
2023-03-26T09:16:06.398Z,14.13
2023-03-26T09:19:00.812Z,13.30
2023-03-26T09:21:33.914Z,19.90
2023-03-26T09:24:25.318Z,8.90
2023-03-26T09:26:57.358Z,13.70
2023-03-26T09:29:35.999Z,6.97
2023-03-26T09:32:42.301Z,8.23
2023-03-26T09:35:33.721Z,15.83
2023-03-26T09:38:11.150Z,9.60
2023-03-26T09:40:52.922Z,8.67
2023-03-26T09:43:42.211Z,11.80
2023-03-26T09:46:29.874Z,10.10
2023-03-26T09:49:10.780Z,16.63
2023-03-26T09:52:03.014Z,12.57
2023-03-26T09:54:50.928Z,11.70
2023-03-26T09:57:51.079Z,10.27
2023-03-26T10:00:43.482Z,6.30
2023-03-26T10:03:35.970Z,9.97
2023-03-26T10:06:11.777Z,5.10
2023-03-26T10:09:08.299Z,9.40
2023-03-26T10:11:56.255Z,5.00
2023-03-26T10:14:38.086Z,5.67
2023-03-26T10:17:31.889Z,9.83
2023-03-26T10:20:27.494Z,9.47
2023-03-26T10:23:15.893Z,7.33
2023-03-26T10:26:09.312Z,8.83
2023-03-26T10:29:10.624Z,5.83
2023-03-26T10:31:59.788Z,15.40
2023-03-26T10:34:55.628Z,7.70
2023-03-26T10:37:48.931Z,11.20
2023-03-26T10:40:53.203Z,4.93
2023-03-26T10:44:08.700Z,3.70
2023-03-26T10:46:55.518Z,3.37
2023-03-26T10:49:49.850Z,7.50
2023-03-26T10:52:22.300Z,8.00
2023-03-26T10:55:10.496Z,4.77
2023-03-26T10:57:53.115Z,5.27
2023-03-26T11:00:25.544Z,3.10
2023-03-26T11:03:03.699Z,1.53
2023-03-26T11:05:47.756Z,5.33
2023-03-26T11:08:31.783Z,3.83
2023-03-26T11:11:29.280Z,4.17
2023-03-26T11:14:11.020Z,4.53
2023-03-26T11:17:14.559Z,4.43
2023-03-26T11:20:08.937Z,4.57
2023-03-26T11:23:05.891Z,4.70
2023-03-26T11:26:01.655Z,3.20
2023-03-26T11:28:37.749Z,4.47
2023-03-26T11:31:13.396Z,8.10
2023-03-26T11:33:47.119Z,5.60
2023-03-26T11:36:20.638Z,4.20
2023-03-26T11:38:50.505Z,6.73
2023-03-26T11:41:23.472Z,4.90
2023-03-26T11:43:58.603Z,3.67
2023-03-26T11:46:26.524Z,12.73
2023-03-26T11:48:59.712Z,4.20
2023-03-26T11:51:33.780Z,7.47
2023-03-26T11:54:01.486Z,3.73
2023-03-26T11:57:05.888Z,2.70
2023-03-26T11:59:48.901Z,4.63
2023-03-26T12:02:35.524Z,3.47
2023-03-26T12:05:24.714Z,3.17
2023-03-26T12:07:59.701Z,3.57
2023-03-26T12:10:29.005Z,4.23
2023-03-26T12:12:58.892Z,1.63
2023-03-26T12:15:27.292Z,3.83
2023-03-26T12:17:56.856Z,1.30
2023-03-26T12:20:26.664Z,1.43
2023-03-26T12:23:01.881Z,2.10
2023-03-26T12:25:34.381Z,2.03
2023-03-26T12:28:12.990Z,3.17
2023-03-26T12:30:42.200Z,1.57
2023-03-26T12:33:29.964Z,2.23
2023-03-26T12:36:00.760Z,3.43
2023-03-26T12:38:33.604Z,2.20
2023-03-26T12:41:05.942Z,2.60
2023-03-26T12:44:55.849Z,2.20
2023-03-26T12:47:57.412Z,2.17
2023-03-26T12:49:23.741Z,6.03
2023-03-26T12:51:58.393Z,5.40
2023-03-26T12:54:48.310Z,3.50
2023-03-26T12:57:24.449Z,2.00
2023-03-26T13:00:00.204Z,1.77
2023-03-26T13:02:49.697Z,1.40
2023-03-26T13:05:24.533Z,1.50
2023-03-26T13:07:56.775Z,2.17
2023-03-26T13:10:48.178Z,4.67
2023-03-26T13:13:36.172Z,3.37
2023-03-26T13:16:40.464Z,1.50
2023-03-26T13:19:21.202Z,4.57
2023-03-26T13:22:37.558Z,1.73
2023-03-26T13:25:18.974Z,5.57
2023-03-26T13:28:19.585Z,1.20
2023-03-26T13:31:06.763Z,2.80
2023-03-26T13:33:48.319Z,2.50
2023-03-26T13:36:24.787Z,1.63
2023-03-26T13:38:59.221Z,5.93
2023-03-26T13:41:41.119Z,2.40
2023-03-26T13:44:29.539Z,4.17
2023-03-26T13:47:05.039Z,3.33
2023-03-26T13:49:38.544Z,1.90
2023-03-26T13:52:34.575Z,1.33
2023-03-26T13:55:17.125Z,1.10
2023-03-26T13:57:49.263Z,1.70
2023-03-26T14:00:21.728Z,2.83
2023-03-26T14:03:16.041Z,2.90
2023-03-26T14:05:46.996Z,2.30
2023-03-26T14:08:25.124Z,4.23
2023-03-26T14:10:58.368Z,3.80
2023-03-26T14:13:38.800Z,3.47
2023-03-26T14:16:08.146Z,1.90
2023-03-26T14:18:59.159Z,3.43
2023-03-26T14:21:41.158Z,1.00
2023-03-26T14:24:32.555Z,1.20
2023-03-26T14:27:30.508Z,1.83
2023-03-26T14:30:12.254Z,4.83
2023-03-26T14:33:05.164Z,1.17
2023-03-26T14:35:40.110Z,4.53
2023-03-26T14:38:33.557Z,2.87
2023-03-26T14:41:13.578Z,2.77
2023-03-26T14:43:41.758Z,1.63
2023-03-26T14:46:35.694Z,3.67
2023-03-26T14:49:08.464Z,1.43
2023-03-26T14:51:57.920Z,2.20
2023-03-26T14:54:27.790Z,2.83
2023-03-26T14:57:19.388Z,4.67
2023-03-26T15:00:19.961Z,2.83
2023-03-26T15:03:24.069Z,2.03
2023-03-26T15:05:56.970Z,2.23
2023-03-26T15:08:58.499Z,3.17
2023-03-26T15:11:27.811Z,7.93
2023-03-26T15:14:21.435Z,5.83
2023-03-26T15:17:02.935Z,4.30
2023-03-26T15:19:47.985Z,3.20
2023-03-26T15:22:52.326Z,8.37
2023-03-26T15:26:18.622Z,9.87
2023-03-26T15:29:05.748Z,8.20
2023-03-26T15:32:17.071Z,12.57
2023-03-26T15:35:10.538Z,16.93
2023-03-26T15:37:46.593Z,7.57
2023-03-26T15:40:31.630Z,7.13
2023-03-26T15:43:01.450Z,15.00
2023-03-26T15:45:38.716Z,9.00
2023-03-26T15:48:11.805Z,14.63
2023-03-26T15:50:59.547Z,10.70
2023-03-26T15:53:48.130Z,8.80
2023-03-26T15:56:34.049Z,14.30
2023-03-26T15:59:44.511Z,12.13
2023-03-26T16:02:26.456Z,11.00
2023-03-26T16:04:57.275Z,6.47
2023-03-26T16:07:52.419Z,12.67
2023-03-26T16:10:28.200Z,6.40
2023-03-26T16:13:17.194Z,8.83
2023-03-26T16:15:53.154Z,13.23
2023-03-26T16:18:25.920Z,10.60
2023-03-26T16:21:31.328Z,7.17
2023-03-26T16:24:01.988Z,11.30
2023-03-26T16:26:43.402Z,6.33
2023-03-26T16:29:26.677Z,6.77
2023-03-26T16:32:16.682Z,13.13
2023-03-26T16:34:56.484Z,8.70
2023-03-26T16:37:33.664Z,8.83
2023-03-26T16:40:22.088Z,8.30
2023-03-26T16:42:55.727Z,11.60
2023-03-26T16:45:42.570Z,11.67
2023-03-26T16:48:17.980Z,21.73
2023-03-26T16:50:54.891Z,12.00
2023-03-26T16:53:29.811Z,12.80
2023-03-26T16:56:06.173Z,10.07
2023-03-26T16:58:51.246Z,7.80
2023-03-26T17:01:27.015Z,5.73
2023-03-26T17:04:05.396Z,6.00
2023-03-26T17:07:13.633Z,13.37
2023-03-26T17:10:08.412Z,7.40
2023-03-26T17:12:46.326Z,8.33
2023-03-26T17:15:26.226Z,9.50
2023-03-26T17:18:17.171Z,9.73
2023-03-26T17:21:16.863Z,5.57
2023-03-26T17:23:59.565Z,6.33
2023-03-26T17:26:41.133Z,6.30
2023-03-26T17:29:29.756Z,5.77
2023-03-26T17:32:14.928Z,8.93
2023-03-26T17:34:48.415Z,8.67
2023-03-26T17:37:26.259Z,5.40
2023-03-26T17:40:13.705Z,10.83
2023-03-26T17:43:01.242Z,5.93
2023-03-26T17:45:32.792Z,10.63
2023-03-26T17:48:21.692Z,4.13
2023-03-26T17:50:56.401Z,9.33
2023-03-26T17:53:35.345Z,11.60
2023-03-26T17:56:07.639Z,7.70
2023-03-26T17:58:39.017Z,10.10
2023-03-26T18:01:29.763Z,12.73
2023-03-26T18:04:00.542Z,10.93
2023-03-26T18:06:46.419Z,7.97
2023-03-26T18:09:29.984Z,9.40
2023-03-26T18:12:44.585Z,13.20
2023-03-26T18:15:34.835Z,11.13
2023-03-26T18:18:19.793Z,8.40
2023-03-26T18:20:49.122Z,11.57
2023-03-26T18:23:36.669Z,6.33
2023-03-26T18:26:13.646Z,7.60
2023-03-26T18:29:05.213Z,7.53
2023-03-26T18:31:31.848Z,9.90
2023-03-26T18:34:06.646Z,6.70
2023-03-26T18:36:33.282Z,8.17
2023-03-26T18:39:00.046Z,9.57
2023-03-26T18:41:33.724Z,4.20
2023-03-26T18:44:06.387Z,8.17
2023-03-26T18:46:33.925Z,12.20
2023-03-26T18:49:04.020Z,4.27
2023-03-26T18:51:32.178Z,9.03
2023-03-26T18:54:02.859Z,5.97
2023-03-26T18:56:38.789Z,8.70
2023-03-26T18:59:17.460Z,8.73
2023-03-26T19:01:47.255Z,13.67
2023-03-26T19:04:15.255Z,12.60
2023-03-26T19:06:43.611Z,8.83
2023-03-26T19:09:28.053Z,6.00
2023-03-26T19:12:15.410Z,12.93
2023-03-26T19:14:58.041Z,15.33
2023-03-26T19:17:28.733Z,10.93
2023-03-26T19:19:57.422Z,8.93
2023-03-26T19:22:25.199Z,7.07
2023-03-26T19:24:58.080Z,13.37
2023-03-26T19:27:25.000Z,10.33
2023-03-26T19:29:51.764Z,6.27
2023-03-26T19:32:29.308Z,3.13
2023-03-26T19:34:59.823Z,8.10
2023-03-26T19:37:29.929Z,8.50
2023-03-26T19:40:20.289Z,19.30
2023-03-26T19:42:48.710Z,8.40
2023-03-26T19:45:19.026Z,4.63
2023-03-26T19:47:48.637Z,5.97
2023-03-26T19:50:25.658Z,6.20
2023-03-26T19:53:18.443Z,5.90
2023-03-26T19:55:54.172Z,8.70
2023-03-26T19:58:21.188Z,4.87
2023-03-26T20:00:47.785Z,7.67
2023-03-26T20:03:16.708Z,11.47
2023-03-26T20:05:43.550Z,10.40
2023-03-26T20:08:14.555Z,10.83
2023-03-26T20:10:42.444Z,9.33
2023-03-26T20:13:17.388Z,6.13
2023-03-26T20:16:13.082Z,5.57
2023-03-26T20:18:39.703Z,4.67
2023-03-26T20:21:13.527Z,8.53
2023-03-26T20:23:40.973Z,13.40
2023-03-26T20:26:15.591Z,5.60
2023-03-26T20:28:48.032Z,4.43
2023-03-26T20:31:19.046Z,10.23
2023-03-26T20:33:47.788Z,4.87
2023-03-26T20:36:15.008Z,7.90
2023-03-26T20:39:01.107Z,8.83
2023-03-26T20:41:27.768Z,11.00
2023-03-26T20:43:54.387Z,13.63
2023-03-26T20:46:23.895Z,6.03
2023-03-26T20:48:59.275Z,11.17
2023-03-26T20:51:27.886Z,8.00
2023-03-26T20:53:55.138Z,5.30
2023-03-26T20:56:21.898Z,5.10
2023-03-26T20:58:54.655Z,28.27
2023-03-26T21:01:27.691Z,6.93
2023-03-26T21:03:54.377Z,4.37
2023-03-26T21:06:21.006Z,7.60
2023-03-26T21:08:47.711Z,8.70
2023-03-26T21:11:29.408Z,8.00
2023-03-26T21:14:09.380Z,7.33
2023-03-26T21:16:36.380Z,6.67
2023-03-26T21:19:04.344Z,6.83
2023-03-26T21:21:43.592Z,18.00
2023-03-26T21:24:49.311Z,4.67
2023-03-26T21:27:35.976Z,7.10
2023-03-26T21:30:05.839Z,8.23
2023-03-26T21:32:32.750Z,7.30
2023-03-26T21:34:59.778Z,4.03
2023-03-26T21:37:26.874Z,6.03
2023-03-26T21:39:53.774Z,14.13
2023-03-26T21:42:20.664Z,6.43
2023-03-26T21:44:47.689Z,7.10
2023-03-26T21:47:14.845Z,7.73
2023-03-26T21:49:41.839Z,8.23
2023-03-26T21:52:14.251Z,7.57
2023-03-26T21:54:42.857Z,6.90
2023-03-26T21:57:18.505Z,3.77
2023-03-26T22:00:15.047Z,11.47
2023-03-26T22:03:11.568Z,5.13
2023-03-26T22:05:52.110Z,7.13
2023-03-26T22:08:36.766Z,4.93
2023-03-26T22:11:03.377Z,10.53
2023-03-26T22:13:30.912Z,4.77
2023-03-26T22:15:57.680Z,7.57
2023-03-26T22:18:25.889Z,11.23
2023-03-26T22:20:52.980Z,6.33
2023-03-26T22:23:19.811Z,7.90
2023-03-26T22:25:46.624Z,5.83
2023-03-26T22:28:13.714Z,5.07
2023-03-26T22:30:40.784Z,6.23
2023-03-26T22:33:11.888Z,5.73
2023-03-26T22:35:41.068Z,12.40
2023-03-26T22:38:07.727Z,5.10
2023-03-26T22:40:34.723Z,6.93
2023-03-26T22:43:01.603Z,8.60
2023-03-26T22:45:28.222Z,6.67
2023-03-26T22:48:03.905Z,7.63
2023-03-26T22:50:31.488Z,7.30
2023-03-26T22:52:58.078Z,7.80
2023-03-26T22:55:28.301Z,13.03
2023-03-26T22:57:56.207Z,6.40
2023-03-26T23:00:22.848Z,7.13
2023-03-26T23:02:49.914Z,5.73
2023-03-26T23:05:19.694Z,12.77
2023-03-26T23:07:48.912Z,5.67
2023-03-26T23:10:15.612Z,6.00
2023-03-26T23:12:42.264Z,9.33
2023-03-26T23:15:09.725Z,8.23
2023-03-26T23:17:37.797Z,5.60
2023-03-26T23:20:14.840Z,2.70
2023-03-26T23:22:42.566Z,5.80
2023-03-26T23:25:10.254Z,6.53
2023-03-26T23:27:37.576Z,9.70
2023-03-26T23:30:05.022Z,5.40
2023-03-26T23:32:31.644Z,10.60
2023-03-26T23:34:58.319Z,5.37
2023-03-26T23:37:24.929Z,6.50
2023-03-26T23:39:52.020Z,10.23
2023-03-26T23:42:28.406Z,12.20
2023-03-26T23:44:56.768Z,4.13
2023-03-26T23:47:23.483Z,3.60
2023-03-26T23:49:50.463Z,5.17
2023-03-26T23:52:17.007Z,10.63
2023-03-26T23:54:44.600Z,13.90
2023-03-26T23:57:11.364Z,7.10
2023-03-26T23:59:38.241Z,6.93
